Providence, Rhode Island
Traffic Map
Current Weather Conditions
Providence, Rhode Island
Clear
Clear
68°
Feels Like: 68°
Wind Chill: 68° Ceiling: Unl
Heat Index: 68° Visibility: 10mi
Dew Point: 49° Wind: 8mph
Humidity: 50% Direction: 360° (N)
Pressure: 30.08in Gusts: 0mph
Raw Report DataKPVD 191151Z 36007KT 10SM CLR 20/09 A3008 RMK AO2 SLP184 T02000094 10200 20161 51014
Traffic Incident Summary
Active as of:
Severity:
Category:
InformationThere was an issue retrieving the traffic information for this location. Please try a different location or try again shortly.
Advertisements